sensor_id;sensor_type;location;lat;lon;timestamp;pressure;altitude;pressure_sealevel;temperature;humidity
71735;BME280;59577;52.122;5.406;2023-03-04T00:02:08;102779.75;;;5.16;77.44
71735;BME280;59577;52.122;5.406;2023-03-04T00:04:35;102783.50;;;5.15;77.95
71735;BME280;59577;52.122;5.406;2023-03-04T00:07:02;102782.72;;;5.15;77.51
71735;BME280;59577;52.122;5.406;2023-03-04T00:09:28;102782.72;;;5.15;77.72
71735;BME280;59577;52.122;5.406;2023-03-04T00:11:55;102781.09;;;5.14;77.86
71735;BME280;59577;52.122;5.406;2023-03-04T00:14:21;102780.03;;;5.15;77.83
71735;BME280;59577;52.122;5.406;2023-03-04T00:16:48;102786.47;;;5.14;78.28
71735;BME280;59577;52.122;5.406;2023-03-04T00:19:14;102784.59;;;5.14;78.08
71735;BME280;59577;52.122;5.406;2023-03-04T00:21:41;102781.66;;;5.16;78.50
71735;BME280;59577;52.122;5.406;2023-03-04T00:24:07;102778.41;;;5.19;78.62
71735;BME280;59577;52.122;5.406;2023-03-04T00:26:34;102777.34;;;5.25;78.01
71735;BME280;59577;52.122;5.406;2023-03-04T00:29:00;102780.31;;;5.28;78.27
71735;BME280;59577;52.122;5.406;2023-03-04T00:31:27;102776.28;;;5.31;78.17
71735;BME280;59577;52.122;5.406;2023-03-04T00:33:54;102783.00;;;5.34;77.82
71735;BME280;59577;52.122;5.406;2023-03-04T00:36:20;102770.38;;;5.34;77.53
71735;BME280;59577;52.122;5.406;2023-03-04T00:38:47;102783.28;;;5.32;77.97
71735;BME280;59577;52.122;5.406;2023-03-04T00:41:13;102781.94;;;5.30;77.93
71735;BME280;59577;52.122;5.406;2023-03-04T00:43:40;102779.50;;;5.28;78.06
71735;BME280;59577;52.122;5.406;2023-03-04T00:46:06;102777.88;;;5.27;78.25
71735;BME280;59577;52.122;5.406;2023-03-04T00:48:33;102770.94;;;5.26;77.89
71735;BME280;59577;52.122;5.406;2023-03-04T00:51:00;102783.78;;;5.24;78.20
71735;BME280;59577;52.122;5.406;2023-03-04T00:53:26;102777.88;;;5.22;78.30
71735;BME280;59577;52.122;5.406;2023-03-04T00:55:52;102774.41;;;5.21;78.63
71735;BME280;59577;52.122;5.406;2023-03-04T00:58:19;102773.88;;;5.19;78.92
71735;BME280;59577;52.122;5.406;2023-03-04T01:00:46;102781.34;;;5.17;78.57
71735;BME280;59577;52.122;5.406;2023-03-04T01:03:12;102785.13;;;5.16;78.66
71735;BME280;59577;52.122;5.406;2023-03-04T01:05:39;102783.50;;;5.15;78.55
71735;BME280;59577;52.122;5.406;2023-03-04T01:08:06;102787.28;;;5.14;78.87
71735;BME280;59577;52.122;5.406;2023-03-04T01:10:32;102782.72;;;5.15;78.55
71735;BME280;59577;52.122;5.406;2023-03-04T01:12:59;102789.13;;;5.14;78.74
71735;BME280;59577;52.122;5.406;2023-03-04T01:15:26;102779.50;;;5.13;78.75
71735;BME280;59577;52.122;5.406;2023-03-04T01:17:53;102780.56;;;5.12;79.23
71735;BME280;59577;52.122;5.406;2023-03-04T01:20:20;102784.03;;;5.12;78.90
71735;BME280;59577;52.122;5.406;2023-03-04T01:22:46;102780.03;;;5.09;79.32
71735;BME280;59577;52.122;5.406;2023-03-04T01:25:13;102777.34;;;5.09;79.23
71735;BME280;59577;52.122;5.406;2023-03-04T01:27:39;102771.44;;;5.07;79.20
71735;BME280;59577;52.122;5.406;2023-03-04T01:30:06;102775.19;;;5.06;79.02
71735;BME280;59577;52.122;5.406;2023-03-04T01:32:33;102756.38;;;5.06;79.50
71735;BME280;59577;52.122;5.406;2023-03-04T01:34:59;102759.88;;;5.12;79.19
71735;BME280;59577;52.122;5.406;2023-03-04T01:37:26;102759.09;;;5.17;79.13
71735;BME280;59577;52.122;5.406;2023-03-04T01:39:52;102754.00;;;5.20;78.97
71735;BME280;59577;52.122;5.406;2023-03-04T01:42:20;102755.34;;;5.23;79.06
71735;BME280;59577;52.122;5.406;2023-03-04T01:44:48;102758.31;;;5.26;78.34
71735;BME280;59577;52.122;5.406;2023-03-04T01:47:17;102751.84;;;5.27;78.73
71735;BME280;59577;52.122;5.406;2023-03-04T01:49:47;102747.81;;;5.25;78.26
71735;BME280;59577;52.122;5.406;2023-03-04T01:52:16;102742.72;;;5.23;78.34
71735;BME280;59577;52.122;5.406;2023-03-04T01:54:42;102740.81;;;5.19;78.53
71735;BME280;59577;52.122;5.406;2023-03-04T01:57:21;102742.19;;;5.16;78.17
71735;BME280;59577;52.122;5.406;2023-03-04T02:02:40;102735.72;;;5.12;78.10
71735;BME280;59577;52.122;5.406;2023-03-04T02:05:07;102727.97;;;5.11;78.40
71735;BME280;59577;52.122;5.406;2023-03-04T02:07:34;102722.59;;;5.11;78.42
71735;BME280;59577;52.122;5.406;2023-03-04T02:10:01;102722.03;;;5.08;78.09
71735;BME280;59577;52.122;5.406;2023-03-04T02:12:27;102718.28;;;5.09;78.37
71735;BME280;59577;52.122;5.406;2023-03-04T02:14:54;102728.50;;;5.07;78.54
71735;BME280;59577;52.122;5.406;2023-03-04T02:17:28;102722.59;;;5.05;78.70
71735;BME280;59577;52.122;5.406;2023-03-04T02:22:39;102712.13;;;5.04;78.64
71735;BME280;59577;52.122;5.406;2023-03-04T02:25:17;102710.50;;;5.03;78.03
71735;BME280;59577;52.122;5.406;2023-03-04T02:27:46;102712.38;;;5.02;78.12
71735;BME280;59577;52.122;5.406;2023-03-04T02:30:12;102702.69;;;5.01;78.73
71735;BME280;59577;52.122;5.406;2023-03-04T02:32:39;102711.03;;;5.00;78.40
71735;BME280;59577;52.122;5.406;2023-03-04T02:35:13;102705.66;;;5.00;78.52
71735;BME280;59577;52.122;5.406;2023-03-04T02:37:42;102698.69;;;4.99;78.65
71735;BME280;59577;52.122;5.406;2023-03-04T02:40:15;102699.75;;;4.98;78.49
71735;BME280;59577;52.122;5.406;2023-03-04T02:42:44;102697.06;;;4.98;78.85
71735;BME280;59577;52.122;5.406;2023-03-04T02:45:33;102699.75;;;5.03;78.35
71735;BME280;59577;52.122;5.406;2023-03-04T02:48:01;102695.19;;;5.08;78.42
71735;BME280;59577;52.122;5.406;2023-03-04T02:50:30;102690.09;;;5.12;78.38
71735;BME280;59577;52.122;5.406;2023-03-04T02:52:59;102689.81;;;5.14;78.19
71735;BME280;59577;52.122;5.406;2023-03-04T02:55:25;102690.38;;;5.16;78.06
71735;BME280;59577;52.122;5.406;2023-03-04T02:57:52;102688.50;;;5.16;78.13
71735;BME280;59577;52.122;5.406;2023-03-04T03:00:18;102690.66;;;5.14;77.87
71735;BME280;59577;52.122;5.406;2023-03-04T03:02:45;102692.50;;;5.14;78.09
71735;BME280;59577;52.122;5.406;2023-03-04T03:05:12;102690.09;;;5.12;77.77
71735;BME280;59577;52.122;5.406;2023-03-04T03:07:38;102679.09;;;5.08;77.87
71735;BME280;59577;52.122;5.406;2023-03-04T03:10:05;102673.19;;;5.06;77.79
71735;BME280;59577;52.122;5.406;2023-03-04T03:12:31;102677.22;;;5.04;77.82
71735;BME280;59577;52.122;5.406;2023-03-04T03:14:58;102674.53;;;5.04;77.05
71735;BME280;59577;52.122;5.406;2023-03-04T03:17:24;102670.50;;;5.01;77.59
71735;BME280;59577;52.122;5.406;2023-03-04T03:19:51;102669.72;;;5.01;77.83
71735;BME280;59577;52.122;5.406;2023-03-04T03:22:17;102665.41;;;5.00;77.67
71735;BME280;59577;52.122;5.406;2023-03-04T03:24:43;102674.53;;;4.99;77.71
71735;BME280;59577;52.122;5.406;2023-03-04T03:27:11;102664.88;;;4.98;77.43
71735;BME280;59577;52.122;5.406;2023-03-04T03:29:37;102667.00;;;4.96;77.87
71735;BME280;59577;52.122;5.406;2023-03-04T03:32:04;102655.50;;;4.95;77.82
71735;BME280;59577;52.122;5.406;2023-03-04T03:34:30;102657.63;;;4.93;78.05
71735;BME280;59577;52.122;5.406;2023-03-04T03:36:57;102657.63;;;4.93;78.18
71735;BME280;59577;52.122;5.406;2023-03-04T03:39:24;102656.03;;;4.92;78.19
71735;BME280;59577;52.122;5.406;2023-03-04T03:41:50;102659.75;;;4.91;77.85
71735;BME280;59577;52.122;5.406;2023-03-04T03:44:17;102657.06;;;4.91;78.16
71735;BME280;59577;52.122;5.406;2023-03-04T03:46:43;102657.34;;;4.89;78.40
71735;BME280;59577;52.122;5.406;2023-03-04T03:49:10;102662.72;;;4.89;78.54
71735;BME280;59577;52.122;5.406;2023-03-04T03:51:37;102659.50;;;4.87;78.21
71735;BME280;59577;52.122;5.406;2023-03-04T03:54:05;102657.63;;;4.88;78.71
71735;BME280;59577;52.122;5.406;2023-03-04T03:56:32;102660.31;;;4.93;78.51
71735;BME280;59577;52.122;5.406;2023-03-04T03:58:58;102666.75;;;4.97;78.30
71735;BME280;59577;52.122;5.406;2023-03-04T04:01:25;102668.34;;;5.03;78.49
71735;BME280;59577;52.122;5.406;2023-03-04T04:03:51;102664.06;;;5.07;78.71
71735;BME280;59577;52.122;5.406;2023-03-04T04:06:18;102667.03;;;5.11;78.83
71735;BME280;59577;52.122;5.406;2023-03-04T04:08:45;102668.34;;;5.14;79.01
71735;BME280;59577;52.122;5.406;2023-03-04T04:11:12;102669.72;;;5.11;78.78
71735;BME280;59577;52.122;5.406;2023-03-04T04:13:38;102670.25;;;5.08;79.24
71735;BME280;59577;52.122;5.406;2023-03-04T04:16:05;102670.75;;;5.05;79.28
71735;BME280;59577;52.122;5.406;2023-03-04T04:18:32;102671.31;;;5.02;79.32
71735;BME280;59577;52.122;5.406;2023-03-04T04:20:59;102675.88;;;5.01;79.59
71735;BME280;59577;52.122;5.406;2023-03-04T04:23:25;102664.88;;;4.98;79.41
71735;BME280;59577;52.122;5.406;2023-03-04T04:25:54;102669.69;;;4.96;79.29
71735;BME280;59577;52.122;5.406;2023-03-04T04:28:20;102668.06;;;4.95;79.55
71735;BME280;59577;52.122;5.406;2023-03-04T04:30:47;102674.53;;;4.94;79.85
71735;BME280;59577;52.122;5.406;2023-03-04T04:33:13;102671.31;;;4.92;79.69
71735;BME280;59577;52.122;5.406;2023-03-04T04:35:40;102671.59;;;4.90;79.66
71735;BME280;59577;52.122;5.406;2023-03-04T04:38:07;102670.75;;;4.89;80.14
71735;BME280;59577;52.122;5.406;2023-03-04T04:40:34;102672.13;;;4.87;80.00
71735;BME280;59577;52.122;5.406;2023-03-04T04:43:02;102677.47;;;4.87;80.10
71735;BME280;59577;52.122;5.406;2023-03-04T04:45:29;102670.75;;;4.84;80.42
71735;BME280;59577;52.122;5.406;2023-03-04T04:47:55;102669.97;;;4.84;80.31
71735;BME280;59577;52.122;5.406;2023-03-04T04:50:23;102675.59;;;4.82;79.94
71735;BME280;59577;52.122;5.406;2023-03-04T04:52:51;102677.47;;;4.82;79.96
71735;BME280;59577;52.122;5.406;2023-03-04T04:55:18;102678.53;;;4.81;80.12
71735;BME280;59577;52.122;5.406;2023-03-04T04:57:44;102674.25;;;4.80;80.03
71735;BME280;59577;52.122;5.406;2023-03-04T05:00:11;102674.25;;;4.80;79.67
71735;BME280;59577;52.122;5.406;2023-03-04T05:02:38;102669.94;;;4.79;80.02
71735;BME280;59577;52.122;5.406;2023-03-04T05:05:06;102669.94;;;4.79;79.48
71735;BME280;59577;52.122;5.406;2023-03-04T05:07:33;102666.47;;;4.83;79.31
71735;BME280;59577;52.122;5.406;2023-03-04T05:09:59;102670.75;;;4.89;79.17
71735;BME280;59577;52.122;5.406;2023-03-04T05:12:26;102668.38;;;4.93;79.46
71735;BME280;59577;52.122;5.406;2023-03-04T05:14:52;102669.44;;;4.97;79.39
71735;BME280;59577;52.122;5.406;2023-03-04T05:17:19;102665.41;;;5.00;79.63
71735;BME280;59577;52.122;5.406;2023-03-04T05:19:45;102665.66;;;5.03;79.13
71735;BME280;59577;52.122;5.406;2023-03-04T05:22:12;102666.75;;;5.02;79.51
71735;BME280;59577;52.122;5.406;2023-03-04T05:24:38;102667.03;;;5.01;79.45
71735;BME280;59577;52.122;5.406;2023-03-04T05:27:05;102669.97;;;4.99;79.73
71735;BME280;59577;52.122;5.406;2023-03-04T05:29:31;102674.81;;;4.97;79.93
71735;BME280;59577;52.122;5.406;2023-03-04T05:31:58;102668.06;;;4.95;79.48
71735;BME280;59577;52.122;5.406;2023-03-04T05:34:24;102671.06;;;4.93;80.12
71735;BME280;59577;52.122;5.406;2023-03-04T05:36:51;102672.13;;;4.92;79.46
71735;BME280;59577;52.122;5.406;2023-03-04T05:39:17;102666.22;;;4.90;79.88
71735;BME280;59577;52.122;5.406;2023-03-04T05:41:44;102678.28;;;4.87;80.35
71735;BME280;59577;52.122;5.406;2023-03-04T05:44:10;102675.84;;;4.86;80.33
71735;BME280;59577;52.122;5.406;2023-03-04T05:46:37;102672.38;;;4.85;80.83
71735;BME280;59577;52.122;5.406;2023-03-04T05:49:04;102669.97;;;4.84;80.70
71735;BME280;59577;52.122;5.406;2023-03-04T05:51:30;102672.91;;;4.82;80.67
71735;BME280;59577;52.122;5.406;2023-03-04T05:53:57;102675.59;;;4.82;80.77
71735;BME280;59577;52.122;5.406;2023-03-04T05:56:23;102670.47;;;4.81;81.39
71735;BME280;59577;52.122;5.406;2023-03-04T05:58:50;102666.22;;;4.80;80.90
71735;BME280;59577;52.122;5.406;2023-03-04T06:01:16;102675.31;;;4.79;80.78
71735;BME280;59577;52.122;5.406;2023-03-04T06:03:43;102669.16;;;4.78;80.89
71735;BME280;59577;52.122;5.406;2023-03-04T06:06:10;102668.34;;;4.78;80.80
71735;BME280;59577;52.122;5.406;2023-03-04T06:08:36;102675.56;;;4.77;81.23
71735;BME280;59577;52.122;5.406;2023-03-04T06:11:03;102673.97;;;4.76;81.43
71735;BME280;59577;52.122;5.406;2023-03-04T06:13:31;102667.78;;;4.76;82.01
71735;BME280;59577;52.122;5.406;2023-03-04T06:15:58;102670.78;;;4.74;82.07
71735;BME280;59577;52.122;5.406;2023-03-04T06:18:26;102666.19;;;4.75;82.05
71735;BME280;59577;52.122;5.406;2023-03-04T06:20:57;102668.34;;;4.78;82.03
71735;BME280;59577;52.122;5.406;2023-03-04T06:23:24;102673.72;;;4.83;81.39
71735;BME280;59577;52.122;5.406;2023-03-04T06:25:55;102670.50;;;4.86;81.74
71735;BME280;59577;52.122;5.406;2023-03-04T06:28:22;102674.00;;;4.92;81.55
71735;BME280;59577;52.122;5.406;2023-03-04T06:30:51;102684.19;;;4.95;81.65
71735;BME280;59577;52.122;5.406;2023-03-04T06:33:18;102675.34;;;4.94;81.54
71735;BME280;59577;52.122;5.406;2023-03-04T06:35:45;102672.66;;;4.94;81.78
71735;BME280;59577;52.122;5.406;2023-03-04T06:38:11;102682.84;;;4.92;82.48
71735;BME280;59577;52.122;5.406;2023-03-04T06:40:38;102679.38;;;4.92;82.59
71735;BME280;59577;52.122;5.406;2023-03-04T06:43:05;102681.22;;;4.91;82.54
71735;BME280;59577;52.122;5.406;2023-03-04T06:45:31;102683.13;;;4.90;82.50
71735;BME280;59577;52.122;5.406;2023-03-04T06:47:58;102679.63;;;4.90;82.74
71735;BME280;59577;52.122;5.406;2023-03-04T06:50:24;102683.91;;;4.91;83.01
71735;BME280;59577;52.122;5.406;2023-03-04T06:52:51;102683.91;;;4.91;82.89
71735;BME280;59577;52.122;5.406;2023-03-04T06:55:18;102681.22;;;4.91;83.44
71735;BME280;59577;52.122;5.406;2023-03-04T06:57:45;102681.22;;;4.91;83.41
71735;BME280;59577;52.122;5.406;2023-03-04T07:00:14;102681.22;;;4.91;83.04
71735;BME280;59577;52.122;5.406;2023-03-04T07:02:41;102690.09;;;4.97;82.96
71735;BME280;59577;52.122;5.406;2023-03-04T07:05:09;102692.25;;;5.05;82.92
71735;BME280;59577;52.122;5.406;2023-03-04T07:07:36;102693.59;;;5.13;83.01
71735;BME280;59577;52.122;5.406;2023-03-04T07:10:03;102691.44;;;5.15;82.70
71735;BME280;59577;52.122;5.406;2023-03-04T07:12:30;102696.81;;;5.15;82.80
71735;BME280;59577;52.122;5.406;2023-03-04T07:14:56;102698.44;;;5.11;82.67
71735;BME280;59577;52.122;5.406;2023-03-04T07:17:23;102693.06;;;5.05;83.09
71735;BME280;59577;52.122;5.406;2023-03-04T07:19:49;102697.06;;;5.03;82.95
71735;BME280;59577;52.122;5.406;2023-03-04T07:22:16;102697.88;;;5.03;83.46
71735;BME280;59577;52.122;5.406;2023-03-04T07:24:42;102701.91;;;5.26;83.99
71735;BME280;59577;52.122;5.406;2023-03-04T07:27:09;102701.91;;;5.47;83.72
71735;BME280;59577;52.122;5.406;2023-03-04T07:29:35;102701.91;;;5.52;83.54
71735;BME280;59577;52.122;5.406;2023-03-04T07:32:06;102701.06;;;5.62;83.48
71735;BME280;59577;52.122;5.406;2023-03-04T07:34:33;102694.03;;;5.92;83.23
71735;BME280;59577;52.122;5.406;2023-03-04T07:37:00;102695.19;;;7.49;81.41
71735;BME280;59577;52.122;5.406;2023-03-04T07:39:26;102696.28;;;7.19;79.45
71735;BME280;59577;52.122;5.406;2023-03-04T07:41:53;102703.84;;;6.82;79.50
71735;BME280;59577;52.122;5.406;2023-03-04T07:44:19;102697.81;;;6.56;80.06
71735;BME280;59577;52.122;5.406;2023-03-04T07:46:46;102700.50;;;6.56;80.73
71735;BME280;59577;52.122;5.406;2023-03-04T07:49:13;102701.84;;;6.53;80.75
71735;BME280;59577;52.122;5.406;2023-03-04T07:51:39;102699.88;;;6.64;80.60
71735;BME280;59577;52.122;5.406;2023-03-04T07:54:06;102700.06;;;6.78;80.48
71735;BME280;59577;52.122;5.406;2023-03-04T07:56:33;102708.91;;;6.89;80.04
71735;BME280;59577;52.122;5.406;2023-03-04T07:59:00;102709.63;;;7.00;80.14
71735;BME280;59577;52.122;5.406;2023-03-04T08:01:32;102698.81;;;7.05;79.36
71735;BME280;59577;52.122;5.406;2023-03-04T08:04:00;102708.50;;;7.06;79.59
71735;BME280;59577;52.122;5.406;2023-03-04T08:06:27;102713.91;;;7.01;79.38
71735;BME280;59577;52.122;5.406;2023-03-04T08:09:02;102715.53;;;7.02;79.77
71735;BME280;59577;52.122;5.406;2023-03-04T08:11:31;102704.97;;;7.10;79.61
71735;BME280;59577;52.122;5.406;2023-03-04T08:13:58;102714.94;;;7.44;79.79
71735;BME280;59577;52.122;5.406;2023-03-04T08:16:25;102716.78;;;7.44;78.98
71735;BME280;59577;52.122;5.406;2023-03-04T08:18:54;102718.88;;;7.23;78.58
71735;BME280;59577;52.122;5.406;2023-03-04T08:21:22;102724.09;;;7.09;79.86
71735;BME280;59577;52.122;5.406;2023-03-04T08:23:50;102724.41;;;7.02;80.59
71735;BME280;59577;52.122;5.406;2023-03-04T08:26:23;102727.41;;;6.95;81.06
71735;BME280;59577;52.122;5.406;2023-03-04T08:28:51;102724.16;;;6.99;81.84
71735;BME280;59577;52.122;5.406;2023-03-04T08:31:19;102721.38;;;7.43;82.30
71735;BME280;59577;52.122;5.406;2023-03-04T08:33:46;102720.47;;;7.82;81.27
71735;BME280;59577;52.122;5.406;2023-03-04T08:36:14;102729.75;;;7.71;80.57
71735;BME280;59577;52.122;5.406;2023-03-04T08:38:41;102726.91;;;7.57;80.96
71735;BME280;59577;52.122;5.406;2023-03-04T08:41:07;102724.63;;;7.69;81.35
71735;BME280;59577;52.122;5.406;2023-03-04T08:43:34;102719.53;;;8.16;80.51
71735;BME280;59577;52.122;5.406;2023-03-04T08:46:01;102720.31;;;8.22;79.38
71735;BME280;59577;52.122;5.406;2023-03-04T08:48:30;102724.44;;;8.14;78.77
71735;BME280;59577;52.122;5.406;2023-03-04T08:50:57;102722.88;;;8.08;79.18
71735;BME280;59577;52.122;5.406;2023-03-04T08:53:24;102718.41;;;7.98;79.67
71735;BME280;59577;52.122;5.406;2023-03-04T08:55:51;102725.81;;;7.87;79.65
71735;BME280;59577;52.122;5.406;2023-03-04T08:58:18;102721.31;;;7.78;79.98
71735;BME280;59577;52.122;5.406;2023-03-04T09:00:45;102721.38;;;7.72;80.06
71735;BME280;59577;52.122;5.406;2023-03-04T09:03:14;102717.66;;;7.68;80.53
71735;BME280;59577;52.122;5.406;2023-03-04T09:05:43;102720.91;;;7.65;81.08
71735;BME280;59577;52.122;5.406;2023-03-04T09:08:09;102721.31;;;7.78;81.34
71735;BME280;59577;52.122;5.406;2023-03-04T09:10:36;102722.41;;;8.01;81.48
71735;BME280;59577;52.122;5.406;2023-03-04T09:13:03;102714.03;;;8.26;81.23
71735;BME280;59577;52.122;5.406;2023-03-04T09:15:29;102710.31;;;8.84;80.83
71735;BME280;59577;52.122;5.406;2023-03-04T09:17:56;102717.44;;;9.27;79.53
71735;BME280;59577;52.122;5.406;2023-03-04T09:20:22;102706.97;;;9.39;78.68
71735;BME280;59577;52.122;5.406;2023-03-04T09:22:49;102714.38;;;9.34;78.32
71735;BME280;59577;52.122;5.406;2023-03-04T09:25:16;102711.00;;;9.09;78.59
71735;BME280;59577;52.122;5.406;2023-03-04T09:27:42;102718.09;;;9.05;78.73
71735;BME280;59577;52.122;5.406;2023-03-04T09:30:09;102706.38;;;9.10;78.69
71735;BME280;59577;52.122;5.406;2023-03-04T09:32:37;102719.91;;;9.10;78.72
71735;BME280;59577;52.122;5.406;2023-03-04T09:35:04;102710.16;;;8.95;79.38
71735;BME280;59577;52.122;5.406;2023-03-04T09:37:30;102714.38;;;8.82;79.63
71735;BME280;59577;52.122;5.406;2023-03-04T09:39:57;102709.34;;;8.75;79.67
71735;BME280;59577;52.122;5.406;2023-03-04T09:42:27;102709.13;;;8.91;79.56
71735;BME280;59577;52.122;5.406;2023-03-04T09:44:55;102706.75;;;9.03;79.10
71735;BME280;59577;52.122;5.406;2023-03-04T09:47:23;102706.00;;;9.16;78.61
71735;BME280;59577;52.122;5.406;2023-03-04T09:49:59;102700.72;;;9.25;78.15
71735;BME280;59577;52.122;5.406;2023-03-04T09:52:53;102704.44;;;9.15;77.84
71735;BME280;59577;52.122;5.406;2023-03-04T09:55:42;102699.81;;;9.16;78.95
71735;BME280;59577;52.122;5.406;2023-03-04T10:01:16;102691.44;;;11.55;72.67
71735;BME280;59577;52.122;5.406;2023-03-04T10:03:50;102689.41;;;11.07;73.35
71735;BME280;59577;52.122;5.406;2023-03-04T10:06:21;102681.16;;;11.12;74.59
71735;BME280;59577;52.122;5.406;2023-03-04T10:08:58;102689.34;;;11.21;73.19
71735;BME280;59577;52.122;5.406;2023-03-04T10:14:15;102684.03;;;10.48;74.08
71735;BME280;59577;52.122;5.406;2023-03-04T10:19:49;102681.09;;;9.66;75.74
71735;BME280;59577;52.122;5.406;2023-03-04T10:25:25;102674.75;;;9.29;76.09
71735;BME280;59577;52.122;5.406;2023-03-04T10:33:14;102673.47;;;9.54;76.07
71735;BME280;59577;52.122;5.406;2023-03-04T10:35:44;102674.88;;;9.93;76.09
71735;BME280;59577;52.122;5.406;2023-03-04T10:38:12;102671.41;;;10.29;73.97
71735;BME280;59577;52.122;5.406;2023-03-04T10:40:40;102671.03;;;10.22;73.93
71735;BME280;59577;52.122;5.406;2023-03-04T10:43:18;102671.41;;;10.29;74.24
71735;BME280;59577;52.122;5.406;2023-03-04T10:45:46;102656.22;;;10.33;73.77
71735;BME280;59577;52.122;5.406;2023-03-04T10:48:41;102665.03;;;10.11;73.69
71735;BME280;59577;52.122;5.406;2023-03-04T10:51:20;102674.16;;;10.02;74.26
71735;BME280;59577;52.122;5.406;2023-03-04T10:56:40;102665.44;;;9.91;73.83
71735;BME280;59577;52.122;5.406;2023-03-04T10:59:30;102660.44;;;9.98;73.68
71735;BME280;59577;52.122;5.406;2023-03-04T11:01:58;102660.22;;;10.08;74.08
71735;BME280;59577;52.122;5.406;2023-03-04T11:04:30;102657.13;;;10.01;74.10
71735;BME280;59577;52.122;5.406;2023-03-04T11:06:57;102659.34;;;9.99;74.21
71735;BME280;59577;52.122;5.406;2023-03-04T11:09:29;102662.66;;;9.96;74.20
71735;BME280;59577;52.122;5.406;2023-03-04T11:12:00;102658.75;;;9.88;74.77
71735;BME280;59577;52.122;5.406;2023-03-04T11:14:35;102669.88;;;9.73;74.82
71735;BME280;59577;52.122;5.406;2023-03-04T11:17:39;102661.84;;;9.54;76.02
71735;BME280;59577;52.122;5.406;2023-03-04T11:20:22;102660.81;;;9.50;76.78
71735;BME280;59577;52.122;5.406;2023-03-04T11:22:51;102655.84;;;9.43;76.78
71735;BME280;59577;52.122;5.406;2023-03-04T11:25:26;102657.72;;;9.43;77.78
71735;BME280;59577;52.122;5.406;2023-03-04T11:27:57;102659.16;;;9.54;77.41
71735;BME280;59577;52.122;5.406;2023-03-04T11:30:31;102659.44;;;9.38;78.17
71735;BME280;59577;52.122;5.406;2023-03-04T11:33:21;102658.16;;;9.17;78.57
71735;BME280;59577;52.122;5.406;2023-03-04T11:38:41;102666.69;;;9.10;79.23
71735;BME280;59577;52.122;5.406;2023-03-04T11:41:16;102669.50;;;9.19;80.11
71735;BME280;59577;52.122;5.406;2023-03-04T11:43:45;102656.44;;;9.40;80.46
71735;BME280;59577;52.122;5.406;2023-03-04T11:49:42;102652.16;;;10.67;79.60
71735;BME280;59577;52.122;5.406;2023-03-04T11:52:18;102643.59;;;11.59;77.36
71735;BME280;59577;52.122;5.406;2023-03-04T12:11:48;102623.81;;;11.59;76.12
71735;BME280;59577;52.122;5.406;2023-03-04T12:14:43;102608.56;;;11.00;74.66
71735;BME280;59577;52.122;5.406;2023-03-04T12:17:42;102618.94;;;10.53;74.99
71735;BME280;59577;52.122;5.406;2023-03-04T12:20:29;102626.94;;;10.22;75.37
71735;BME280;59577;52.122;5.406;2023-03-04T12:23:10;102625.59;;;9.83;77.89
71735;BME280;59577;52.122;5.406;2023-03-04T12:25:56;102625.09;;;9.67;78.53
71735;BME280;59577;52.122;5.406;2023-03-04T12:28:39;102621.00;;;9.55;79.08
71735;BME280;59577;52.122;5.406;2023-03-04T12:44:14;102607.91;;;10.13;77.48
71735;BME280;59577;52.122;5.406;2023-03-04T12:47:12;102590.47;;;10.33;76.86
71735;BME280;59577;52.122;5.406;2023-03-04T12:50:34;102597.22;;;10.30;76.99
71735;BME280;59577;52.122;5.406;2023-03-04T12:52:49;102594.63;;;10.39;75.52
71735;BME280;59577;52.122;5.406;2023-03-04T12:55:22;102592.28;;;10.46;74.98
71735;BME280;59577;52.122;5.406;2023-03-04T12:57:54;102589.34;;;10.57;75.19
71735;BME280;59577;52.122;5.406;2023-03-04T13:08:37;102581.72;;;10.22;72.54
71735;BME280;59577;52.122;5.406;2023-03-04T13:14:00;102587.75;;;9.69;74.25
71735;BME280;59577;52.122;5.406;2023-03-04T13:16:37;102589.25;;;9.47;73.85
71735;BME280;59577;52.122;5.406;2023-03-04T13:22:26;102587.53;;;9.10;74.75
71735;BME280;59577;52.122;5.406;2023-03-04T13:24:53;102590.41;;;8.99;75.47
71735;BME280;59577;52.122;5.406;2023-03-04T13:51:39;102578.44;;;9.33;74.69
71735;BME280;59577;52.122;5.406;2023-03-04T13:54:29;102566.41;;;9.39;74.36
71735;BME280;59577;52.122;5.406;2023-03-04T13:59:53;102559.31;;;9.57;73.98
71735;BME280;59577;52.122;5.406;2023-03-04T14:02:22;102550.44;;;9.43;74.88
71735;BME280;59577;52.122;5.406;2023-03-04T14:12:32;102551.97;;;8.89;73.15
71735;BME280;59577;52.122;5.406;2023-03-04T14:15:03;102555.81;;;8.88;72.56
71735;BME280;59577;52.122;5.406;2023-03-04T14:17:33;102550.06;;;8.89;72.88
71735;BME280;59577;52.122;5.406;2023-03-04T14:20:03;102549.28;;;8.89;72.70
71735;BME280;59577;52.122;5.406;2023-03-04T14:22:36;102557.69;;;8.87;71.79
71735;BME280;59577;52.122;5.406;2023-03-04T14:27:39;102544.84;;;8.79;71.66
71735;BME280;59577;52.122;5.406;2023-03-04T14:30:27;102549.34;;;8.70;72.13
71735;BME280;59577;52.122;5.406;2023-03-04T14:33:13;102552.13;;;8.64;71.69
71735;BME280;59577;52.122;5.406;2023-03-04T14:35:46;102550.91;;;8.57;71.15
71735;BME280;59577;52.122;5.406;2023-03-04T14:38:33;102549.81;;;8.58;71.32
71735;BME280;59577;52.122;5.406;2023-03-04T14:41:04;102539.22;;;8.61;71.31
71735;BME280;59577;52.122;5.406;2023-03-04T14:43:48;102536.81;;;8.60;71.18
71735;BME280;59577;52.122;5.406;2023-03-04T14:46:17;102538.59;;;8.51;71.73
71735;BME280;59577;52.122;5.406;2023-03-04T14:48:49;102544.56;;;8.47;70.97
71735;BME280;59577;52.122;5.406;2023-03-04T14:51:28;102527.94;;;8.40;71.47
71735;BME280;59577;52.122;5.406;2023-03-04T14:53:55;102520.75;;;8.36;71.79
71735;BME280;59577;52.122;5.406;2023-03-04T14:56:30;102527.22;;;8.35;71.95
71735;BME280;59577;52.122;5.406;2023-03-04T14:58:58;102516.22;;;8.31;71.21
71735;BME280;59577;52.122;5.406;2023-03-04T15:01:34;102523.72;;;8.34;71.84
71735;BME280;59577;52.122;5.406;2023-03-04T15:04:09;102516.63;;;8.38;71.70
71735;BME280;59577;52.122;5.406;2023-03-04T15:06:51;102523.44;;;8.36;72.41